Terminal Aerodrome Forecast
Issued by NWS

Home | Current Version | Previous Version | Text Only | Print | Product List | Glossary On
Versions: 1 2 3 4 5 6 7 8 9 10 11 12 13 14 15 16 17 18 19 20 21 22 23
000
FTUS45 KBOI 292336
TAFTWF
TAF
KTWF 292336Z 3000/3024 VRB05KT P6SM VCTS SCT070CB BKN100
      TEMPO 3000/3003 VRB15G25KT P6SM -TSRA BKN070CB
     FM300500 20011KT P6SM SCT100 BKN200
     FM301200 24013KT P6SM SCT100 BKN200
     FM301800 27015G25KT P6SM SCT150 BKN200=

USA.gov is the U.S. government's official web portal to all federal, state and local government web resources and services.